Time;durP1;ratioP1;P1;durP2;ratioP2;P2;SDS_P1;SDS_P2;PMS_P1;PMS_P2;Temp;Humidity;BMP_temperature;BMP_pressure;BME280_temperature;BME280_humidity;BME280_pressure;Samples;Min_cycle;Max_cycle;Signal;HPM_P1;HPM_P2
2022/07/03 00:00:24;;;;;;;0.82;0.50;;;18.00;66.30;;;;;;6336089;22;20034;-73
2022/07/03 00:02:50;;;;;;;0.32;0.32;;;18.00;66.30;;;;;;6308348;22;20478;-74
2022/07/03 00:05:15;;;;;;;0.40;0.40;;;18.00;66.30;;;;;;6335776;22;20067;-74
2022/07/03 00:07:41;;;;;;;0.50;0.50;;;17.90;66.40;;;;;;6336126;22;20342;-74
2022/07/03 00:10:08;;;;;;;0.52;0.38;;;18.00;66.60;;;;;;6335507;22;20010;-74
2022/07/03 00:12:34;;;;;;;0.52;0.50;;;17.90;66.60;;;;;;6335635;22;20011;-75
2022/07/03 00:15:00;;;;;;;0.63;0.40;;;17.90;66.80;;;;;;6335308;22;20053;-74
2022/07/03 00:17:25;;;;;;;0.57;0.57;;;17.80;66.80;;;;;;6307976;22;20010;-74
2022/07/03 00:19:51;;;;;;;0.70;0.50;;;17.90;67.10;;;;;;6335556;22;19999;-74
2022/07/03 00:22:18;;;;;;;0.50;0.50;;;17.80;67.00;;;;;;6335673;22;20361;-74
2022/07/03 00:24:52;;;;;;;0.43;0.43;;;17.80;67.10;;;;;;6308549;22;20343;-74
2022/07/03 00:27:20;;;;;;;0.60;0.50;;;17.80;67.20;;;;;;6335669;22;20003;-74
2022/07/03 00:29:46;;;;;;;0.40;0.40;;;17.80;67.30;;;;;;6307696;22;20081;-74
2022/07/03 00:32:17;;;;;;;0.73;0.47;;;17.70;67.40;;;;;;6282500;22;20015;-74
2022/07/03 00:34:43;;;;;;;0.88;0.65;;;17.70;67.60;;;;;;6308730;22;20014;-74
2022/07/03 00:37:09;;;;;;;0.50;0.50;;;17.60;67.60;;;;;;6307762;22;20011;-75
2022/07/03 00:39:42;;;;;;;0.35;0.35;;;17.60;67.70;;;;;;6335632;22;20011;-74
2022/07/03 00:42:09;;;;;;;0.50;0.50;;;17.60;67.80;;;;;;6336184;22;20063;-74
2022/07/03 00:44:45;;;;;;;1.13;0.60;;;17.50;67.80;;;;;;6307444;22;20019;-74
2022/07/03 00:47:12;;;;;;;0.50;0.50;;;17.50;68.00;;;;;;6337449;22;20423;-74
2022/07/03 00:49:39;;;;;;;0.90;0.70;;;17.50;68.10;;;;;;6309587;22;20042;-74
2022/07/03 00:52:05;;;;;;;0.60;0.50;;;17.40;68.10;;;;;;6309197;22;20015;-74
2022/07/03 00:54:34;;;;;;;0.40;0.40;;;17.40;68.20;;;;;;6309547;22;20380;-74
2022/07/03 00:57:01;;;;;;;0.40;0.40;;;17.40;68.30;;;;;;6275195;22;20008;-74
2022/07/03 00:59:27;;;;;;;0.40;0.40;;;17.30;68.40;;;;;;6330387;22;19999;-74
2022/07/03 01:02:01;;;;;;;0.40;0.40;;;17.40;68.60;;;;;;6308827;22;20097;-74
2022/07/03 01:04:45;;;;;;;0.52;0.52;;;17.30;68.60;;;;;;6336451;22;19999;-74
2022/07/03 01:07:25;;;;;;;0.50;0.50;;;17.20;68.80;;;;;;6337196;22;20010;-74
2022/07/03 01:10:03;;;;;;;0.50;0.50;;;17.20;68.90;;;;;;6336934;22;20013;-74
2022/07/03 01:13:02;;;;;;;0.50;0.40;;;17.10;68.90;;;;;;6336139;22;20015;-74
2022/07/03 01:15:39;;;;;;;0.50;0.50;;;17.00;69.00;;;;;;6336566;22;19998;-74
2022/07/03 01:18:45;;;;;;;0.50;0.50;;;17.10;69.10;;;;;;6336688;22;20003;-74
2022/07/03 01:21:35;;;;;;;0.73;0.50;;;17.00;69.20;;;;;;6336308;22;20089;-74
2022/07/03 01:24:24;;;;;;;0.47;0.47;;;17.00;69.30;;;;;;6337205;22;20081;-74
2022/07/03 01:26:55;;;;;;;0.50;0.50;;;16.90;69.40;;;;;;6310954;22;20091;-74
2022/07/03 01:29:26;;;;;;;0.40;0.40;;;17.00;69.50;;;;;;6310246;22;20013;-75
2022/07/03 01:31:54;;;;;;;0.60;0.60;;;16.80;69.50;;;;;;6306930;22;20015;-74
2022/07/03 01:34:21;;;;;;;0.82;0.70;;;16.80;69.70;;;;;;6306914;22;20003;-74
2022/07/03 01:36:50;;;;;;;0.60;0.52;;;16.80;70.00;;;;;;6336476;22;20006;-75
2022/07/03 01:39:16;;;;;;;1.20;0.50;;;16.70;70.10;;;;;;6336311;22;19995;-74
2022/07/03 01:41:47;;;;;;;0.82;0.50;;;16.70;70.20;;;;;;6308092;22;20014;-75
2022/07/03 01:44:14;;;;;;;0.50;0.50;;;16.70;70.30;;;;;;6309965;22;20057;-75
2022/07/03 01:46:45;;;;;;;0.88;0.80;;;16.70;70.30;;;;;;6309279;22;20365;-75
2022/07/03 01:49:12;;;;;;;0.50;0.50;;;16.70;70.30;;;;;;6336217;22;20330;-75
2022/07/03 01:51:41;;;;;;;0.80;0.70;;;16.60;70.20;;;;;;6336186;22;20017;-75
2022/07/03 01:54:10;;;;;;;0.93;0.60;;;16.70;70.40;;;;;;6337031;22;20191;-75
2022/07/03 01:56:36;;;;;;;0.45;0.45;;;16.70;70.40;;;;;;6336337;22;20010;-75
2022/07/03 01:59:03;;;;;;;0.95;0.50;;;16.70;70.40;;;;;;6336176;22;20007;-74
2022/07/03 02:01:52;;;;;;;0.60;0.60;;;16.70;70.40;;;;;;6309179;22;20011;-74
2022/07/03 02:04:33;;;;;;;0.40;0.40;;;16.70;70.40;;;;;;6336253;22;20335;-74
2022/07/03 02:07:08;;;;;;;0.50;0.50;;;16.70;70.20;;;;;;6307858;22;20015;-75
2022/07/03 02:09:48;;;;;;;0.63;0.50;;;16.70;70.10;;;;;;6336644;22;20002;-74
2022/07/03 02:12:18;;;;;;;0.40;0.40;;;16.70;70.10;;;;;;6336792;22;20019;-75
2022/07/03 02:14:54;;;;;;;0.40;0.40;;;16.80;70.10;;;;;;6336723;22;20007;-74
2022/07/03 02:17:21;;;;;;;0.50;0.50;;;16.70;70.10;;;;;;6336783;22;20365;-74
2022/07/03 02:19:55;;;;;;;0.40;0.40;;;16.70;70.10;;;;;;6308983;22;20013;-74
2022/07/03 02:22:27;;;;;;;0.30;0.30;;;16.80;70.10;;;;;;6309911;22;20390;-74
2022/07/03 02:24:59;;;;;;;0.45;0.45;;;16.80;70.10;;;;;;6336386;22;20017;-75
2022/07/03 02:27:31;;;;;;;0.30;0.30;;;16.90;70.10;;;;;;6336893;22;20007;-75
2022/07/03 02:30:13;;;;;;;0.30;0.30;;;16.80;70.10;;;;;;6335810;22;20006;-74
2022/07/03 02:32:45;;;;;;;0.40;0.40;;;16.80;70.10;;;;;;6308371;22;20338;-74
2022/07/03 02:35:16;;;;;;;0.40;0.40;;;16.80;70.10;;;;;;6304862;22;20003;-75
2022/07/03 02:37:48;;;;;;;0.52;0.40;;;16.70;70.10;;;;;;6336500;22;20013;-74
2022/07/03 02:40:24;;;;;;;0.40;0.40;;;16.70;70.20;;;;;;6309801;22;20002;-74
2022/07/03 02:43:08;;;;;;;0.57;0.40;;;16.60;70.20;;;;;;6308139;22;20007;-74
2022/07/03 02:45:50;;;;;;;0.30;0.30;;;16.60;70.30;;;;;;6307486;22;20017;-74
2022/07/03 02:48:31;;;;;;;0.43;0.30;;;16.60;70.40;;;;;;6336392;22;20017;-74
2022/07/03 02:51:04;;;;;;;0.40;0.40;;;16.60;70.50;;;;;;6336188;22;20082;-75
2022/07/03 02:53:37;;;;;;;0.40;0.40;;;16.60;70.50;;;;;;6308462;22;20006;-74
2022/07/03 02:56:15;;;;;;;0.30;0.30;;;16.50;70.50;;;;;;6310113;22;20003;-75
2022/07/03 02:58:57;;;;;;;0.47;0.47;;;16.50;70.50;;;;;;6336522;22;19999;-74
2022/07/03 03:01:38;;;;;;;0.40;0.40;;;16.50;70.60;;;;;;6335737;22;20003;-74
2022/07/03 03:04:18;;;;;;;0.45;0.45;;;16.40;70.70;;;;;;6307885;22;20058;-74
2022/07/03 03:06:54;;;;;;;0.68;0.50;;;16.30;70.80;;;;;;6336623;22;20316;-75
2022/07/03 03:09:26;;;;;;;0.50;0.50;;;16.30;70.90;;;;;;6335119;22;20783;-74
2022/07/03 03:11:56;;;;;;;0.30;0.30;;;16.30;71.00;;;;;;6307793;22;20038;-75
2022/07/03 03:14:37;;;;;;;0.20;0.20;;;16.30;71.00;;;;;;6307510;22;20491;-75
2022/07/03 03:17:06;;;;;;;0.50;0.50;;;16.20;71.20;;;;;;6335714;22;20029;-74
2022/07/03 03:19:39;;;;;;;0.35;0.35;;;16.20;71.20;;;;;;6336404;22;20014;-74
2022/07/03 03:22:23;;;;;;;0.43;0.43;;;16.10;71.20;;;;;;6308232;22;20007;-74
2022/07/03 03:24:49;;;;;;;0.68;0.40;;;16.10;71.40;;;;;;6336036;22;20011;-74
2022/07/03 03:27:15;;;;;;;0.57;0.57;;;16.00;71.40;;;;;;6336414;22;20010;-75
2022/07/03 03:29:41;;;;;;;0.75;0.50;;;16.00;71.50;;;;;;6251043;22;20015;-75
2022/07/03 03:32:07;;;;;;;0.32;0.32;;;16.00;71.70;;;;;;6336287;22;20415;-74
2022/07/03 03:34:33;;;;;;;0.63;0.57;;;15.90;71.70;;;;;;6335943;22;20037;-75
2022/07/03 03:37:00;;;;;;;0.52;0.50;;;16.00;71.80;;;;;;6305534;22;20504;-75
2022/07/03 03:39:27;;;;;;;0.45;0.45;;;16.00;71.80;;;;;;6307774;22;20006;-74
2022/07/03 03:41:53;;;;;;;0.40;0.40;;;15.90;71.80;;;;;;6335743;22;20985;-74
2022/07/03 03:44:18;;;;;;;0.63;0.50;;;15.90;71.90;;;;;;6335627;22;20041;-74
2022/07/03 03:46:44;;;;;;;0.60;0.60;;;15.90;72.00;;;;;;6335857;22;20046;-75
2022/07/03 03:49:10;;;;;;;0.40;0.40;;;15.80;71.90;;;;;;6308528;22;20003;-74
2022/07/03 03:51:36;;;;;;;0.30;0.30;;;15.80;72.00;;;;;;6307898;22;20060;-74
2022/07/03 03:54:04;;;;;;;0.30;0.30;;;15.80;72.00;;;;;;6335843;22;20423;-75
2022/07/03 03:56:30;;;;;;;0.30;0.30;;;15.90;72.10;;;;;;6336641;22;20029;-74
2022/07/03 03:58:56;;;;;;;0.40;0.40;;;15.80;72.00;;;;;;6335527;22;20490;-75
2022/07/03 04:01:21;;;;;;;0.32;0.32;;;15.90;72.10;;;;;;6307758;22;20086;-74
2022/07/03 04:03:48;;;;;;;0.40;0.40;;;15.90;72.20;;;;;;6336225;22;20041;-74
2022/07/03 04:06:13;;;;;;;0.50;0.50;;;16.00;72.20;;;;;;6336026;22;20390;-75
2022/07/03 04:08:39;;;;;;;0.77;0.60;;;15.90;72.10;;;;;;6282553;22;20011;-75
2022/07/03 04:11:05;;;;;;;0.60;0.60;;;15.90;72.10;;;;;;6335701;22;20007;-75
2022/07/03 04:13:30;;;;;;;0.45;0.45;;;15.90;72.10;;;;;;6335679;22;20007;-74
2022/07/03 04:15:56;;;;;;;0.65;0.57;;;16.00;72.10;;;;;;6336681;22;20021;-74
2022/07/03 04:18:22;;;;;;;0.60;0.60;;;15.90;72.10;;;;;;6335728;22;20438;-74
2022/07/03 04:20:48;;;;;;;0.40;0.40;;;16.00;72.20;;;;;;6336341;22;20038;-75
2022/07/03 04:23:14;;;;;;;0.43;0.43;;;16.00;72.20;;;;;;6309590;22;20018;-75
2022/07/03 04:25:40;;;;;;;0.45;0.45;;;16.00;72.10;;;;;;6336771;22;20055;-75
2022/07/03 04:28:06;;;;;;;0.40;0.40;;;16.00;72.20;;;;;;6337014;22;20017;-75
2022/07/03 04:30:31;;;;;;;0.40;0.40;;;16.00;72.20;;;;;;6337220;22;20013;-75
2022/07/03 04:32:57;;;;;;;0.40;0.40;;;16.00;72.90;;;;;;6336909;22;21061;-75
2022/07/03 04:35:23;;;;;;;0.40;0.40;;;16.00;72.30;;;;;;6337479;22;20088;-75
2022/07/03 04:37:49;;;;;;;0.40;0.40;;;16.00;72.40;;;;;;6306682;22;19995;-74
2022/07/03 04:40:14;;;;;;;0.50;0.50;;;15.90;73.00;;;;;;6337130;22;20006;-74
2022/07/03 04:42:40;;;;;;;0.50;0.50;;;16.00;72.60;;;;;;6336835;22;20030;-75
2022/07/03 04:45:07;;;;;;;1.42;0.40;;;16.00;72.60;;;;;;6337073;22;20082;-75
2022/07/03 04:47:32;;;;;;;0.60;0.60;;;15.90;72.70;;;;;;6336907;22;20018;-75
2022/07/03 04:49:58;;;;;;;0.50;0.50;;;15.90;72.80;;;;;;6283502;22;20011;-75
2022/07/03 04:52:24;;;;;;;0.50;0.50;;;15.90;72.90;;;;;;6336781;22;20014;-75
2022/07/03 04:54:50;;;;;;;0.50;0.50;;;15.80;72.90;;;;;;6337556;22;20014;-75
2022/07/03 04:57:16;;;;;;;0.55;0.50;;;15.90;72.90;;;;;;6336702;22;20010;-75
2022/07/03 04:59:41;;;;;;;0.50;0.50;;;15.90;72.90;;;;;;6337159;22;20003;-75
2022/07/03 05:02:07;;;;;;;0.40;0.40;;;16.00;72.80;;;;;;6310042;22;20098;-74
2022/07/03 05:04:33;;;;;;;0.60;0.60;;;16.10;72.70;;;;;;6337620;22;20083;-74
2022/07/03 05:06:59;;;;;;;0.95;0.50;;;16.10;72.60;;;;;;6309727;22;20003;-75
2022/07/03 05:09:25;;;;;;;0.40;0.40;;;16.30;72.60;;;;;;6337010;22;20450;-75
2022/07/03 05:11:51;;;;;;;0.52;0.50;;;16.30;72.40;;;;;;6337208;22;20308;-75
2022/07/03 05:14:16;;;;;;;0.50;0.50;;;16.50;72.30;;;;;;6309783;22;20090;-75
2022/07/03 05:16:42;;;;;;;1.27;0.47;;;16.60;71.90;;;;;;6337098;22;20037;-75
2022/07/03 05:19:08;;;;;;;0.57;0.57;;;16.70;71.60;;;;;;6337453;22;20003;-75
2022/07/03 05:21:34;;;;;;;0.40;0.40;;;16.90;71.40;;;;;;6336837;22;20056;-75
2022/07/03 05:23:59;;;;;;;0.45;0.45;;;17.00;71.10;;;;;;6310042;22;20010;-75
2022/07/03 05:26:25;;;;;;;0.32;0.32;;;17.20;71.00;;;;;;6337097;22;20007;-75
2022/07/03 05:28:51;;;;;;;0.45;0.45;;;17.20;70.80;;;;;;6336569;22;20003;-75
2022/07/03 05:31:17;;;;;;;0.60;0.60;;;17.20;70.80;;;;;;6307997;22;20006;-75
2022/07/03 05:33:42;;;;;;;0.55;0.55;;;17.30;70.90;;;;;;6307412;22;20047;-75
2022/07/03 05:36:08;;;;;;;0.90;0.45;;;17.40;70.70;;;;;;6309310;22;20003;-75
2022/07/03 05:41:19;;;;;;;0.60;0.60;;;17.40;70.80;;;;;;6336612;22;20026;-76
2022/07/03 05:43:45;;;;;;;0.60;0.40;;;17.50;71.00;;;;;;6336829;22;20010;-76
2022/07/03 05:46:11;;;;;;;0.30;0.30;;;17.40;71.00;;;;;;6337152;22;20007;-75
2022/07/03 05:48:37;;;;;;;0.28;0.28;;;17.40;71.20;;;;;;6336529;22;20507;-75
2022/07/03 05:51:03;;;;;;;0.50;0.50;;;17.40;71.30;;;;;;6307301;22;20007;-75
2022/07/03 05:53:29;;;;;;;0.50;0.50;;;17.50;71.50;;;;;;6306446;22;20021;-75
2022/07/03 05:55:55;;;;;;;0.68;0.40;;;17.50;71.50;;;;;;6308676;22;20011;-75
2022/07/03 05:58:21;;;;;;;0.52;0.52;;;17.60;71.40;;;;;;6284281;22;20779;-76
2022/07/03 06:00:47;;;;;;;0.70;0.60;;;17.70;71.30;;;;;;6336536;22;20029;-76
2022/07/03 06:03:12;;;;;;;0.38;0.38;;;17.80;71.20;;;;;;6306752;22;20033;-75
2022/07/03 06:05:38;;;;;;;0.52;0.50;;;17.80;71.00;;;;;;6336524;22;20060;-76
2022/07/03 06:08:05;;;;;;;0.55;0.40;;;17.90;70.90;;;;;;6336594;22;20017;-75
2022/07/03 06:10:31;;;;;;;0.35;0.35;;;18.00;70.80;;;;;;6306571;22;20422;-75
2022/07/03 06:12:58;;;;;;;0.52;0.47;;;18.10;70.70;;;;;;6265874;22;20094;-74
2022/07/03 06:15:24;;;;;;;0.55;0.47;;;18.10;70.60;;;;;;6230062;22;20101;-75
2022/07/03 06:17:50;;;;;;;0.43;0.43;;;18.30;70.60;;;;;;6224015;22;20036;-75
2022/07/03 06:20:16;;;;;;;0.65;0.50;;;18.30;70.40;;;;;;6256859;22;20004;-75
2022/07/03 06:22:42;;;;;;;0.30;0.30;;;18.40;70.20;;;;;;6230354;22;20008;-76
2022/07/03 06:25:09;;;;;;;0.50;0.50;;;18.40;70.20;;;;;;6220986;22;20017;-75
2022/07/03 06:27:35;;;;;;;1.48;0.50;;;18.40;70.40;;;;;;6246804;22;20012;-75
2022/07/03 06:30:02;;;;;;;1.13;0.35;;;18.40;70.50;;;;;;6272358;22;20015;-73
2022/07/03 06:32:28;;;;;;;0.82;0.65;;;18.50;70.50;;;;;;6246990;22;20141;-76
2022/07/03 06:34:53;;;;;;;0.32;0.30;;;18.50;70.40;;;;;;6246770;22;20007;-76
2022/07/03 06:37:19;;;;;;;0.55;0.55;;;18.60;70.30;;;;;;6260651;22;20049;-74
2022/07/03 06:39:45;;;;;;;0.30;0.30;;;18.70;70.20;;;;;;6259700;22;20015;-75
2022/07/03 06:42:11;;;;;;;0.52;0.50;;;18.80;70.00;;;;;;6259266;22;20063;-75
2022/07/03 06:44:36;;;;;;;0.38;0.38;;;18.90;69.80;;;;;;6282352;22;20012;-75
2022/07/03 06:47:03;;;;;;;0.40;0.40;;;19.00;69.60;;;;;;6338833;22;20363;-75
2022/07/03 06:49:32;;;;;;;0.40;0.40;;;19.10;69.40;;;;;;6310070;22;20052;-75
2022/07/03 06:51:58;;;;;;;0.38;0.32;;;19.10;69.40;;;;;;6338118;22;20427;-76
2022/07/03 06:54:24;;;;;;;0.40;0.40;;;19.20;69.50;;;;;;6337226;22;20009;-75
2022/07/03 06:56:50;;;;;;;0.68;0.40;;;19.30;69.40;;;;;;6307111;22;20013;-76
2022/07/03 06:59:16;;;;;;;1.17;0.60;;;19.40;69.30;;;;;;6337607;22;20007;-76
2022/07/03 07:01:42;;;;;;;0.30;0.30;;;19.50;69.10;;;;;;6337638;22;20042;-76
2022/07/03 07:04:08;;;;;;;0.40;0.40;;;19.60;69.00;;;;;;6308695;22;20338;-75
2022/07/03 07:06:34;;;;;;;0.40;0.40;;;19.80;68.80;;;;;;6306236;22;20004;-76
2022/07/03 07:09:00;;;;;;;0.30;0.30;;;20.00;68.60;;;;;;6336605;22;20013;-75
2022/07/03 07:11:25;;;;;;;0.20;0.20;;;20.20;68.30;;;;;;6336799;22;20431;-76
2022/07/03 07:13:51;;;;;;;0.68;0.40;;;20.30;68.20;;;;;;6307916;22;20368;-75
2022/07/03 07:16:16;;;;;;;0.47;0.32;;;20.40;68.10;;;;;;6311267;22;20411;-75
2022/07/03 07:18:43;;;;;;;0.20;0.20;;;20.60;67.80;;;;;;6316108;22;20014;-75
2022/07/03 07:21:10;;;;;;;1.60;0.40;;;20.70;67.50;;;;;;6307265;22;20381;-74
2022/07/03 07:23:36;;;;;;;1.90;0.50;;;20.90;67.50;;;;;;6338457;22;20003;-76
2022/07/03 07:26:03;;;;;;;0.40;0.40;;;21.00;67.20;;;;;;6338581;22;20011;-75
2022/07/03 07:28:28;;;;;;;0.32;0.32;;;21.20;67.00;;;;;;6310706;22;20389;-76
2022/07/03 07:30:56;;;;;;;0.30;0.30;;;21.30;67.00;;;;;;6337815;22;20059;-76
2022/07/03 07:33:21;;;;;;;0.85;0.50;;;21.30;67.10;;;;;;6300689;22;20018;-76
2022/07/03 07:35:48;;;;;;;0.80;0.50;;;21.40;67.10;;;;;;6309862;22;20010;-75
2022/07/03 07:38:13;;;;;;;0.52;0.40;;;21.60;67.00;;;;;;6337342;22;20011;-76
2022/07/03 07:40:39;;;;;;;0.55;0.30;;;21.80;66.90;;;;;;6338459;22;20098;-75
2022/07/03 07:43:05;;;;;;;0.70;0.45;;;22.00;66.90;;;;;;6336811;22;20018;-77
2022/07/03 07:45:30;;;;;;;0.30;0.30;;;22.10;66.80;;;;;;6337140;22;20006;-76
2022/07/03 07:47:56;;;;;;;1.65;0.47;;;22.20;66.80;;;;;;6338877;22;20006;-76
2022/07/03 07:50:22;;;;;;;0.30;0.30;;;22.30;66.70;;;;;;6338121;22;20017;-77
2022/07/03 07:52:48;;;;;;;0.55;0.40;;;22.40;66.60;;;;;;6282376;22;20015;-76
2022/07/03 07:55:14;;;;;;;0.50;0.40;;;22.40;66.60;;;;;;6336169;22;20015;-76
2022/07/03 07:57:40;;;;;;;0.45;0.38;;;22.30;66.70;;;;;;6336905;22;20003;-75
2022/07/03 08:00:10;;;;;;;0.40;0.40;;;22.30;67.20;;;;;;6335561;22;20002;-74
2022/07/03 08:08:02;;;;;;;0.50;0.30;;;22.60;66.80;;;;;;6349884;22;20010;-75
2022/07/03 08:10:28;;;;;;;0.85;0.40;;;22.80;66.70;;;;;;6349967;22;20013;-75
2022/07/03 08:12:53;;;;;;;0.30;0.30;;;22.90;66.40;;;;;;6348327;22;20019;-75
2022/07/03 08:15:19;;;;;;;0.25;0.25;;;23.10;66.20;;;;;;6348698;22;20019;-74
2022/07/03 08:17:45;;;;;;;0.35;0.30;;;23.10;66.00;;;;;;6313788;22;20007;-73
2022/07/03 08:20:11;;;;;;;0.52;0.40;;;23.20;66.00;;;;;;6339222;22;20335;-74
2022/07/03 08:22:36;;;;;;;0.40;0.30;;;23.30;65.90;;;;;;6344534;22;20007;-75
2022/07/03 08:25:02;;;;;;;0.85;0.47;;;23.50;65.70;;;;;;6309403;22;20007;-76
2022/07/03 08:27:28;;;;;;;0.43;0.40;;;23.50;65.50;;;;;;6314637;22;20035;-75
2022/07/03 08:29:54;;;;;;;0.52;0.40;;;23.50;65.50;;;;;;6335403;22;20003;-75
2022/07/03 08:32:20;;;;;;;0.38;0.38;;;23.70;65.50;;;;;;6335441;22;20011;-74
2022/07/03 08:34:45;;;;;;;0.50;0.50;;;23.70;65.40;;;;;;6336884;22;20022;-73
2022/07/03 08:37:11;;;;;;;0.65;0.40;;;23.80;65.00;;;;;;6333187;22;20059;-73
2022/07/03 08:39:37;;;;;;;0.60;0.40;;;24.00;64.90;;;;;;6335929;22;20021;-74
2022/07/03 08:42:05;;;;;;;1.40;0.30;;;24.00;64.60;;;;;;6306668;22;20313;-74
2022/07/03 08:44:32;;;;;;;0.85;0.47;;;24.00;64.40;;;;;;6337003;22;20003;-74
2022/07/03 08:46:59;;;;;;;0.40;0.40;;;24.00;64.50;;;;;;6337122;22;20013;-75
2022/07/03 08:49:26;;;;;;;0.60;0.35;;;24.00;64.50;;;;;;6335759;22;20094;-73
2022/07/03 08:51:53;;;;;;;0.43;0.38;;;24.10;64.50;;;;;;6335968;22;20006;-74
2022/07/03 08:54:19;;;;;;;0.40;0.40;;;24.10;64.40;;;;;;6336219;22;20010;-74
2022/07/03 08:56:46;;;;;;;1.08;0.40;;;24.10;64.30;;;;;;6336688;22;20423;-74
2022/07/03 08:59:13;;;;;;;0.43;0.40;;;24.20;64.20;;;;;;6308120;22;20003;-74
2022/07/03 09:01:42;;;;;;;0.95;0.50;;;24.30;64.10;;;;;;6282608;22;20021;-74
2022/07/03 09:04:13;;;;;;;0.50;0.50;;;24.40;64.00;;;;;;6335092;22;20018;-74
2022/07/03 09:06:40;;;;;;;0.52;0.40;;;24.40;63.80;;;;;;6336568;22;20021;-73
2022/07/03 09:09:08;;;;;;;0.85;0.40;;;24.50;63.60;;;;;;6337197;22;20081;-75
2022/07/03 09:11:35;;;;;;;0.40;0.40;;;24.50;63.40;;;;;;6309301;22;20014;-74
2022/07/03 09:14:06;;;;;;;0.65;0.30;;;24.40;63.60;;;;;;6337094;22;20442;-74
2022/07/03 09:16:35;;;;;;;0.40;0.40;;;24.40;63.50;;;;;;6337516;22;20030;-74
2022/07/03 09:19:02;;;;;;;0.40;0.40;;;24.40;63.50;;;;;;6310592;22;19999;-74
2022/07/03 09:21:39;;;;;;;0.30;0.30;;;24.50;63.60;;;;;;6310635;22;20002;-74
2022/07/03 09:24:08;;;;;;;1.23;0.30;;;24.60;63.10;;;;;;6338516;22;19995;-74
2022/07/03 09:26:35;;;;;;;0.52;0.32;;;24.70;62.90;;;;;;6336947;22;20003;-74
2022/07/03 09:29:01;;;;;;;0.95;0.50;;;24.70;62.80;;;;;;6336527;22;20002;-73
2022/07/03 09:31:30;;;;;;;0.40;0.40;;;24.80;62.60;;;;;;6338513;22;20007;-74
2022/07/03 09:34:01;;;;;;;0.50;0.40;;;24.90;62.40;;;;;;6336520;22;20078;-73
2022/07/03 09:36:44;;;;;;;0.80;0.40;;;25.10;62.10;;;;;;6337150;22;20015;-73
2022/07/03 09:39:17;;;;;;;0.30;0.30;;;25.20;61.70;;;;;;6336760;22;20001;-73
2022/07/03 09:41:55;;;;;;;0.75;0.30;;;25.20;61.70;;;;;;6337074;22;20439;-73
2022/07/03 09:44:46;;;;;;;0.40;0.40;;;25.10;61.70;;;;;;6336478;22;19999;-73
2022/07/03 09:47:16;;;;;;;0.63;0.47;;;25.10;61.80;;;;;;6336435;22;20003;-73
2022/07/03 09:49:56;;;;;;;0.38;0.38;;;25.10;62.10;;;;;;6336999;22;20368;-73
2022/07/03 09:52:32;;;;;;;1.23;0.60;;;25.10;61.90;;;;;;6308724;22;20087;-73
2022/07/03 09:55:01;;;;;;;0.63;0.30;;;25.00;62.00;;;;;;6336396;22;20007;-73
2022/07/03 09:57:30;;;;;;;0.40;0.40;;;24.90;62.00;;;;;;6336995;22;20003;-73
2022/07/03 10:00:24;;;;;;;0.40;0.40;;;24.90;62.10;;;;;;6336231;22;20070;-73
2022/07/03 10:03:06;;;;;;;0.50;0.30;;;24.90;61.90;;;;;;6336337;22;20086;-73
2022/07/03 10:05:40;;;;;;;0.40;0.40;;;24.80;62.00;;;;;;6336267;22;20060;-73
2022/07/03 10:08:10;;;;;;;0.30;0.30;;;24.60;62.50;;;;;;6336440;22;20014;-73
2022/07/03 10:10:39;;;;;;;;;;;24.70;62.50;;;;;;6337583;22;20018;-73
2022/07/03 10:13:05;;;;;;;0.40;0.40;;;24.80;62.30;;;;;;6336342;22;19906;-74
2022/07/03 10:15:36;;;;;;;0.52;0.30;;;24.90;62.00;;;;;;6337380;22;20455;-74
2022/07/03 10:18:04;;;;;;;0.40;0.40;;;25.00;61.60;;;;;;6336437;22;20007;-75
2022/07/03 10:20:34;;;;;;;0.43;0.30;;;25.00;61.60;;;;;;6336207;22;20412;-74
2022/07/03 10:23:01;;;;;;;0.63;0.38;;;25.00;61.50;;;;;;6337058;22;20301;-73
2022/07/03 10:25:27;;;;;;;0.38;0.35;;;24.90;61.70;;;;;;6336529;22;20014;-73
2022/07/03 10:27:54;;;;;;;0.40;0.40;;;24.80;61.90;;;;;;6308248;22;20045;-74
2022/07/03 10:30:22;;;;;;;0.85;0.38;;;24.90;61.80;;;;;;6335971;22;20084;-72
2022/07/03 10:32:51;;;;;;;0.40;0.40;;;25.00;61.40;;;;;;6336304;22;20202;-73
2022/07/03 10:35:24;;;;;;;0.68;0.43;;;25.00;61.20;;;;;;6336857;22;20069;-73
2022/07/03 10:38:18;;;;;;;1.42;0.40;;;24.90;61.50;;;;;;6336998;22;19995;-73
2022/07/03 10:46:33;;;;;;;0.30;0.30;;;24.30;62.50;;;;;;6310636;22;20042;-72
2022/07/03 10:49:07;;;;;;;0.65;0.40;;;24.40;62.50;;;;;;6336285;22;19999;-73
2022/07/03 10:51:50;;;;;;;0.30;0.30;;;24.60;61.80;;;;;;6336380;22;20006;-74
2022/07/03 10:54:19;;;;;;;0.43;0.30;;;24.90;61.50;;;;;;6336194;22;20038;-73
2022/07/03 10:57:07;;;;;;;0.35;0.30;;;25.10;61.00;;;;;;6336268;22;20006;-73
2022/07/03 10:59:56;;;;;;;1.25;0.45;;;25.10;60.60;;;;;;6334669;22;20380;-73
2022/07/03 11:02:31;;;;;;;0.35;0.35;;;25.00;60.50;;;;;;6314462;22;20002;-73
2022/07/03 11:05:19;;;;;;;0.32;0.32;;;25.10;60.70;;;;;;6336814;22;20073;-73
2022/07/03 11:08:04;;;;;;;0.43;0.40;;;25.10;60.50;;;;;;6336054;22;20005;-73
2022/07/03 11:10:32;;;;;;;0.30;0.30;;;25.10;60.50;;;;;;6308179;22;19999;-73
2022/07/03 11:13:01;;;;;;;0.30;0.30;;;25.20;60.50;;;;;;6336509;22;20030;-73
2022/07/03 11:15:41;;;;;;;0.63;0.50;;;25.30;60.30;;;;;;6335980;22;20457;-73
2022/07/03 11:18:10;;;;;;;0.50;0.50;;;25.20;59.90;;;;;;6336986;22;20486;-74
2022/07/03 11:20:57;;;;;;;0.47;0.40;;;25.10;60.10;;;;;;6283037;22;20006;-73
2022/07/03 11:23:40;;;;;;;0.40;0.40;;;25.00;60.20;;;;;;6312972;22;20030;-74
2022/07/03 11:26:26;;;;;;;0.57;0.32;;;24.80;61.20;;;;;;6336128;22;20052;-73
2022/07/03 11:28:53;;;;;;;0.52;0.40;;;24.70;60.80;;;;;;6312453;22;20055;-73
2022/07/03 11:31:21;;;;;;;0.20;0.20;;;24.60;61.20;;;;;;6335970;22;19999;-73
2022/07/03 11:33:49;;;;;;;0.35;0.35;;;24.40;61.20;;;;;;6335974;22;20007;-73
2022/07/03 11:36:33;;;;;;;0.35;0.35;;;24.40;61.30;;;;;;6335769;22;20010;-73
2022/07/03 11:39:07;;;;;;;0.52;0.47;;;24.30;61.50;;;;;;6307850;22;19998;-73
2022/07/03 11:41:45;;;;;;;0.45;0.45;;;24.10;61.50;;;;;;6336475;22;19999;-73
2022/07/03 11:44:17;;;;;;;0.43;0.43;;;24.30;61.50;;;;;;6336527;22;20078;-73
2022/07/03 11:46:47;;;;;;;0.43;0.30;;;24.40;61.10;;;;;;6335900;22;20010;-73
2022/07/03 11:49:16;;;;;;;0.38;0.38;;;24.50;60.60;;;;;;6307606;22;20419;-74
2022/07/03 11:51:56;;;;;;;0.30;0.30;;;24.60;60.60;;;;;;6336046;22;20326;-73
2022/07/03 11:54:21;;;;;;;0.30;0.30;;;24.70;60.50;;;;;;6335689;22;20030;-73
2022/07/03 11:56:48;;;;;;;1.40;0.40;;;24.80;60.20;;;;;;6335694;22;20435;-73
2022/07/03 11:59:14;;;;;;;0.30;0.30;;;24.90;60.00;;;;;;6336013;22;19998;-73
2022/07/03 12:01:40;;;;;;;0.30;0.30;;;24.90;59.90;;;;;;6335846;22;20028;-73
2022/07/03 12:04:09;;;;;;;0.35;0.35;;;24.90;59.70;;;;;;6335629;22;20487;-73
2022/07/03 12:06:37;;;;;;;0.30;0.30;;;24.90;59.70;;;;;;6333868;22;20003;-73
2022/07/03 12:09:16;;;;;;;0.35;0.35;;;25.00;59.70;;;;;;6282210;22;20003;-74
2022/07/03 12:11:52;;;;;;;1.00;0.40;;;25.00;59.50;;;;;;6336464;22;20006;-73
2022/07/03 12:14:17;;;;;;;0.40;0.40;;;25.00;59.40;;;;;;6336096;22;20494;-73
2022/07/03 12:16:43;;;;;;;0.40;0.40;;;25.00;59.30;;;;;;6335663;22;20038;-73
2022/07/03 12:19:09;;;;;;;0.30;0.30;;;24.90;59.10;;;;;;6307946;22;19995;-74
2022/07/03 12:21:38;;;;;;;0.40;0.40;;;24.80;59.40;;;;;;6336124;22;20003;-74
2022/07/03 12:24:10;;;;;;;0.40;0.40;;;24.60;59.70;;;;;;6307825;22;20017;-73
2022/07/03 12:26:36;;;;;;;1.60;0.45;;;24.60;59.90;;;;;;6307970;22;20009;-74
2022/07/03 12:29:06;;;;;;;0.40;0.40;;;24.70;59.70;;;;;;6335367;22;20003;-74
2022/07/03 12:31:33;;;;;;;0.38;0.38;;;24.70;59.60;;;;;;6307907;22;20007;-74
2022/07/03 12:34:00;;;;;;;2.10;0.57;;;24.40;59.90;;;;;;6308296;22;20015;-73
2022/07/03 12:36:27;;;;;;;0.82;0.50;;;24.50;59.90;;;;;;6335416;22;20081;-73
2022/07/03 12:38:56;;;;;;;0.98;0.50;;;24.50;59.90;;;;;;6335208;22;20003;-73
2022/07/03 12:41:23;;;;;;;0.30;0.30;;;24.50;59.70;;;;;;6335845;22;20003;-74
2022/07/03 12:43:50;;;;;;;0.40;0.40;;;24.60;59.50;;;;;;6336515;22;20092;-74
2022/07/03 12:46:26;;;;;;;0.73;0.43;;;24.60;59.20;;;;;;6336764;22;20322;-73
2022/07/03 12:48:54;;;;;;;0.50;0.40;;;24.60;59.10;;;;;;6336745;22;20034;-73
2022/07/03 12:51:39;;;;;;;0.32;0.32;;;24.70;59.00;;;;;;6337228;22;20003;-73
2022/07/03 12:54:14;;;;;;;0.45;0.30;;;24.70;58.90;;;;;;6337360;22;20453;-73
2022/07/03 12:56:41;;;;;;;0.20;0.20;;;24.60;59.00;;;;;;6334517;22;20007;-73
2022/07/03 12:59:23;;;;;;;0.30;0.30;;;24.50;59.10;;;;;;6336759;22;20006;-73
2022/07/03 13:02:03;;;;;;;0.57;0.35;;;24.60;59.20;;;;;;6336433;22;20022;-73
2022/07/03 13:04:37;;;;;;;0.40;0.40;;;24.40;59.00;;;;;;6331691;22;20003;-73
2022/07/03 13:07:06;;;;;;;0.25;0.25;;;24.30;59.30;;;;;;6309334;22;20389;-73
2022/07/03 13:09:34;;;;;;;0.50;0.40;;;24.30;59.30;;;;;;6336662;22;20005;-74
2022/07/03 13:11:59;;;;;;;0.75;0.43;;;24.40;59.20;;;;;;6309153;22;19998;-73
2022/07/03 13:14:25;;;;;;;0.40;0.40;;;24.50;58.90;;;;;;6337113;22;20063;-73